sensor_id;sensor_type;location;lat;lon;timestamp;temperature;humidity
16134;DHT22;8172;45.018;5.972;2022-09-13T00:04:58;18.10;55.60
16134;DHT22;8172;45.018;5.972;2022-09-13T00:10:05;18.10;55.60
16134;DHT22;8172;45.018;5.972;2022-09-13T00:15:12;18.10;55.60
16134;DHT22;8172;45.018;5.972;2022-09-13T00:20:19;18.20;55.70
16134;DHT22;8172;45.018;5.972;2022-09-13T00:25:26;18.20;55.70
16134;DHT22;8172;45.018;5.972;2022-09-13T00:30:33;18.20;55.70
16134;DHT22;8172;45.018;5.972;2022-09-13T00:35:40;18.20;55.70
16134;DHT22;8172;45.018;5.972;2022-09-13T00:40:47;18.20;55.90
16134;DHT22;8172;45.018;5.972;2022-09-13T00:45:54;18.10;55.90
16134;DHT22;8172;45.018;5.972;2022-09-13T00:51:02;18.10;55.80
16134;DHT22;8172;45.018;5.972;2022-09-13T00:56:14;18.10;55.80
16134;DHT22;8172;45.018;5.972;2022-09-13T01:01:22;18.10;55.80
16134;DHT22;8172;45.018;5.972;2022-09-13T01:06:32;18.00;55.70
16134;DHT22;8172;45.018;5.972;2022-09-13T01:11:44;18.00;55.80
16134;DHT22;8172;45.018;5.972;2022-09-13T01:16:50;18.00;55.80
16134;DHT22;8172;45.018;5.972;2022-09-13T01:47:51;17.90;56.10
16134;DHT22;8172;45.018;5.972;2022-09-13T01:53:00;17.80;56.20
16134;DHT22;8172;45.018;5.972;2022-09-13T01:58:11;17.80;56.20
16134;DHT22;8172;45.018;5.972;2022-09-13T02:03:26;17.80;56.30
16134;DHT22;8172;45.018;5.972;2022-09-13T02:13:39;17.80;56.30
16134;DHT22;8172;45.018;5.972;2022-09-13T02:18:48;17.70;56.20
16134;DHT22;8172;45.018;5.972;2022-09-13T02:23:59;17.70;56.10
16134;DHT22;8172;45.018;5.972;2022-09-13T02:29:08;17.70;56.00
16134;DHT22;8172;45.018;5.972;2022-09-13T02:34:17;17.60;56.00
16134;DHT22;8172;45.018;5.972;2022-09-13T02:39:26;17.60;56.00
16134;DHT22;8172;45.018;5.972;2022-09-13T02:44:36;17.60;56.10
16134;DHT22;8172;45.018;5.972;2022-09-13T02:55:00;17.60;55.90
16134;DHT22;8172;45.018;5.972;2022-09-13T03:00:06;17.60;55.80
16134;DHT22;8172;45.018;5.972;2022-09-13T03:05:13;17.60;55.70
16134;DHT22;8172;45.018;5.972;2022-09-13T03:10:20;17.50;55.50
16134;DHT22;8172;45.018;5.972;2022-09-13T03:25:57;17.50;55.40
16134;DHT22;8172;45.018;5.972;2022-09-13T03:31:06;17.40;55.30
16134;DHT22;8172;45.018;5.972;2022-09-13T03:36:10;17.40;55.30
16134;DHT22;8172;45.018;5.972;2022-09-13T03:41:17;17.40;55.20
16134;DHT22;8172;45.018;5.972;2022-09-13T03:51:33;17.30;55.20
16134;DHT22;8172;45.018;5.972;2022-09-13T03:56:41;17.30;55.10
16134;DHT22;8172;45.018;5.972;2022-09-13T04:01:48;17.30;55.00
16134;DHT22;8172;45.018;5.972;2022-09-13T04:06:55;17.30;55.00
16134;DHT22;8172;45.018;5.972;2022-09-13T04:12:02;17.30;54.90
16134;DHT22;8172;45.018;5.972;2022-09-13T04:17:10;17.40;54.80
16134;DHT22;8172;45.018;5.972;2022-09-13T04:22:17;17.40;54.80
16134;DHT22;8172;45.018;5.972;2022-09-13T04:27:24;17.40;54.70
16134;DHT22;8172;45.018;5.972;2022-09-13T04:32:31;17.40;54.60
16134;DHT22;8172;45.018;5.972;2022-09-13T04:37:38;17.40;54.60
16134;DHT22;8172;45.018;5.972;2022-09-13T04:42:45;17.30;54.60
16134;DHT22;8172;45.018;5.972;2022-09-13T04:47:52;17.30;54.60
16134;DHT22;8172;45.018;5.972;2022-09-13T04:52:59;17.30;54.50
16134;DHT22;8172;45.018;5.972;2022-09-13T04:58:08;17.30;54.50
16134;DHT22;8172;45.018;5.972;2022-09-13T05:03:14;17.40;54.30
16134;DHT22;8172;45.018;5.972;2022-09-13T05:08:21;17.40;54.20
16134;DHT22;8172;45.018;5.972;2022-09-13T05:13:29;17.30;54.30
16134;DHT22;8172;45.018;5.972;2022-09-13T05:18:36;17.30;54.30
16134;DHT22;8172;45.018;5.972;2022-09-13T05:23:47;17.30;54.30
16134;DHT22;8172;45.018;5.972;2022-09-13T05:28:53;17.40;54.30
16134;DHT22;8172;45.018;5.972;2022-09-13T05:34:05;17.40;54.30
16134;DHT22;8172;45.018;5.972;2022-09-13T05:39:12;17.30;54.20
16134;DHT22;8172;45.018;5.972;2022-09-13T05:44:21;17.30;53.90
16134;DHT22;8172;45.018;5.972;2022-09-13T05:49:28;17.30;54.00
16134;DHT22;8172;45.018;5.972;2022-09-13T05:54:35;17.40;54.00
16134;DHT22;8172;45.018;5.972;2022-09-13T05:59:45;17.40;54.10
16134;DHT22;8172;45.018;5.972;2022-09-13T06:04:52;17.40;53.90
16134;DHT22;8172;45.018;5.972;2022-09-13T06:09:59;17.40;54.60
16134;DHT22;8172;45.018;5.972;2022-09-13T06:15:07;17.40;54.50
16134;DHT22;8172;45.018;5.972;2022-09-13T06:20:15;17.50;55.10
16134;DHT22;8172;45.018;5.972;2022-09-13T06:25:22;17.60;55.10
16134;DHT22;8172;45.018;5.972;2022-09-13T06:30:29;17.60;55.20
16134;DHT22;8172;45.018;5.972;2022-09-13T06:35:36;17.70;55.40
16134;DHT22;8172;45.018;5.972;2022-09-13T06:40:43;17.80;55.50
16134;DHT22;8172;45.018;5.972;2022-09-13T06:45:50;17.80;55.70
16134;DHT22;8172;45.018;5.972;2022-09-13T06:51:01;17.90;56.00
16134;DHT22;8172;45.018;5.972;2022-09-13T06:56:11;17.90;56.30
16134;DHT22;8172;45.018;5.972;2022-09-13T07:01:20;18.00;56.10
16134;DHT22;8172;45.018;5.972;2022-09-13T07:06:30;18.00;56.40
16134;DHT22;8172;45.018;5.972;2022-09-13T07:11:39;18.10;56.70
16134;DHT22;8172;45.018;5.972;2022-09-13T07:16:47;18.20;57.10
16134;DHT22;8172;45.018;5.972;2022-09-13T07:21:55;18.20;57.40
16134;DHT22;8172;45.018;5.972;2022-09-13T07:27:02;18.30;57.60
16134;DHT22;8172;45.018;5.972;2022-09-13T07:32:09;18.30;57.70
16134;DHT22;8172;45.018;5.972;2022-09-13T07:37:37;18.40;57.60
16134;DHT22;8172;45.018;5.972;2022-09-13T07:42:44;18.40;57.60
16134;DHT22;8172;45.018;5.972;2022-09-13T07:47:52;18.50;57.90
16134;DHT22;8172;45.018;5.972;2022-09-13T07:52:59;18.60;58.20
16134;DHT22;8172;45.018;5.972;2022-09-13T07:58:06;18.60;58.20
16134;DHT22;8172;45.018;5.972;2022-09-13T08:03:13;18.70;58.20
16134;DHT22;8172;45.018;5.972;2022-09-13T08:08:21;18.70;58.70
16134;DHT22;8172;45.018;5.972;2022-09-13T08:13:28;18.90;58.70
16134;DHT22;8172;45.018;5.972;2022-09-13T08:18:41;19.00;59.10
16134;DHT22;8172;45.018;5.972;2022-09-13T08:23:46;19.20;59.10
16134;DHT22;8172;45.018;5.972;2022-09-13T08:28:56;19.40;59.50
16134;DHT22;8172;45.018;5.972;2022-09-13T08:34:03;19.50;59.20
16134;DHT22;8172;45.018;5.972;2022-09-13T08:39:11;19.60;59.00
16134;DHT22;8172;45.018;5.972;2022-09-13T08:44:23;19.70;59.10
16134;DHT22;8172;45.018;5.972;2022-09-13T08:49:36;19.90;58.90
16134;DHT22;8172;45.018;5.972;2022-09-13T08:54:40;20.00;58.50
16134;DHT22;8172;45.018;5.972;2022-09-13T09:25:34;20.70;56.30
16134;DHT22;8172;45.018;5.972;2022-09-13T09:30:48;20.80;56.00
16134;DHT22;8172;45.018;5.972;2022-09-13T09:46:13;21.00;56.20
16134;DHT22;8172;45.018;5.972;2022-09-13T09:51:24;21.00;56.00
16134;DHT22;8172;45.018;5.972;2022-09-13T09:56:34;21.10;56.20
16134;DHT22;8172;45.018;5.972;2022-09-13T10:01:43;21.10;56.20
16134;DHT22;8172;45.018;5.972;2022-09-13T10:12:01;21.30;55.80
16134;DHT22;8172;45.018;5.972;2022-09-13T10:22:18;21.60;55.70
16134;DHT22;8172;45.018;5.972;2022-09-13T10:27:35;21.70;55.10
16134;DHT22;8172;45.018;5.972;2022-09-13T10:32:39;21.70;55.00
16134;DHT22;8172;45.018;5.972;2022-09-13T10:37:46;21.80;55.20
16134;DHT22;8172;45.018;5.972;2022-09-13T10:42:56;21.80;55.10
16134;DHT22;8172;45.018;5.972;2022-09-13T10:48:09;21.80;55.00
16134;DHT22;8172;45.018;5.972;2022-09-13T10:58:24;22.10;54.50
16134;DHT22;8172;45.018;5.972;2022-09-13T11:55:16;23.80;51.00
16134;DHT22;8172;45.018;5.972;2022-09-13T12:00:22;23.90;50.60
16134;DHT22;8172;45.018;5.972;2022-09-13T12:05:33;23.90;50.50
16134;DHT22;8172;45.018;5.972;2022-09-13T12:10:45;23.90;50.10
16134;DHT22;8172;45.018;5.972;2022-09-13T12:15:56;23.80;50.10
16134;DHT22;8172;45.018;5.972;2022-09-13T12:21:04;23.90;50.60
16134;DHT22;8172;45.018;5.972;2022-09-13T12:26:18;24.00;50.70
16134;DHT22;8172;45.018;5.972;2022-09-13T12:31:24;24.10;50.20
16134;DHT22;8172;45.018;5.972;2022-09-13T12:46:56;24.00;50.60
16134;DHT22;8172;45.018;5.972;2022-09-13T12:52:05;23.90;50.90
16134;DHT22;8172;45.018;5.972;2022-09-13T12:57:15;24.00;51.30
16134;DHT22;8172;45.018;5.972;2022-09-13T13:07:29;24.50;50.70
16134;DHT22;8172;45.018;5.972;2022-09-13T13:12:39;24.70;50.50
16134;DHT22;8172;45.018;5.972;2022-09-13T13:17:49;24.70;50.10
16134;DHT22;8172;45.018;5.972;2022-09-13T13:33:20;24.30;50.60
16134;DHT22;8172;45.018;5.972;2022-09-13T13:43:34;24.40;50.90
16134;DHT22;8172;45.018;5.972;2022-09-13T13:48:42;24.40;50.90
16134;DHT22;8172;45.018;5.972;2022-09-13T13:53:52;24.40;51.00
16134;DHT22;8172;45.018;5.972;2022-09-13T14:04:13;24.30;51.70
16134;DHT22;8172;45.018;5.972;2022-09-13T14:09:27;24.20;51.50
16134;DHT22;8172;45.018;5.972;2022-09-13T14:19:41;24.30;51.80
16134;DHT22;8172;45.018;5.972;2022-09-13T14:29:56;24.60;52.40
16134;DHT22;8172;45.018;5.972;2022-09-13T14:35:06;24.90;52.00
16134;DHT22;8172;45.018;5.972;2022-09-13T14:45:25;24.90;51.90
16134;DHT22;8172;45.018;5.972;2022-09-13T14:50:34;24.70;51.70
16134;DHT22;8172;45.018;5.972;2022-09-13T14:55:44;24.50;52.00
16134;DHT22;8172;45.018;5.972;2022-09-13T15:00:56;24.30;52.10
16134;DHT22;8172;45.018;5.972;2022-09-13T15:06:04;24.10;52.40
16134;DHT22;8172;45.018;5.972;2022-09-13T15:11:13;23.90;52.40
16134;DHT22;8172;45.018;5.972;2022-09-13T15:16:24;23.80;53.00
16134;DHT22;8172;45.018;5.972;2022-09-13T15:21:34;23.70;53.10
16134;DHT22;8172;45.018;5.972;2022-09-13T15:26:42;23.60;53.00
16134;DHT22;8172;45.018;5.972;2022-09-13T15:31:49;23.50;53.30
16134;DHT22;8172;45.018;5.972;2022-09-13T15:42:06;23.30;53.60
16134;DHT22;8172;45.018;5.972;2022-09-13T15:47:15;23.20;53.50
16134;DHT22;8172;45.018;5.972;2022-09-13T15:52:23;23.10;53.40
16134;DHT22;8172;45.018;5.972;2022-09-13T15:57:30;23.00;53.50
16134;DHT22;8172;45.018;5.972;2022-09-13T16:02:38;22.90;53.40
16134;DHT22;8172;45.018;5.972;2022-09-13T16:07:45;22.90;53.30
16134;DHT22;8172;45.018;5.972;2022-09-13T16:12:52;22.80;53.40
16134;DHT22;8172;45.018;5.972;2022-09-13T16:18:00;22.80;53.40
16134;DHT22;8172;45.018;5.972;2022-09-13T16:23:07;22.70;53.30
16134;DHT22;8172;45.018;5.972;2022-09-13T16:28:17;22.70;53.30
16134;DHT22;8172;45.018;5.972;2022-09-13T16:33:25;22.70;53.20
16134;DHT22;8172;45.018;5.972;2022-09-13T16:38:33;22.60;53.30
16134;DHT22;8172;45.018;5.972;2022-09-13T16:43:40;22.50;53.20
16134;DHT22;8172;45.018;5.972;2022-09-13T16:48:51;22.50;53.50
16134;DHT22;8172;45.018;5.972;2022-09-13T16:53:58;22.40;53.50
16134;DHT22;8172;45.018;5.972;2022-09-13T16:59:06;22.40;53.60
16134;DHT22;8172;45.018;5.972;2022-09-13T17:04:12;22.30;53.70
16134;DHT22;8172;45.018;5.972;2022-09-13T17:09:20;22.20;53.70
16134;DHT22;8172;45.018;5.972;2022-09-13T17:14:28;22.20;53.80
16134;DHT22;8172;45.018;5.972;2022-09-13T17:19:35;22.10;54.00
16134;DHT22;8172;45.018;5.972;2022-09-13T17:24:43;22.10;54.10
16134;DHT22;8172;45.018;5.972;2022-09-13T17:29:50;22.10;54.20
16134;DHT22;8172;45.018;5.972;2022-09-13T17:34:57;22.10;54.20
16134;DHT22;8172;45.018;5.972;2022-09-13T17:40:04;22.10;54.50
16134;DHT22;8172;45.018;5.972;2022-09-13T17:45:11;22.10;54.60
16134;DHT22;8172;45.018;5.972;2022-09-13T17:50:19;22.10;54.90
16134;DHT22;8172;45.018;5.972;2022-09-13T17:55:26;22.00;55.00
16134;DHT22;8172;45.018;5.972;2022-09-13T18:00:33;22.00;55.20
16134;DHT22;8172;45.018;5.972;2022-09-13T18:05:40;21.90;55.10
16134;DHT22;8172;45.018;5.972;2022-09-13T18:10:47;21.80;55.00
16134;DHT22;8172;45.018;5.972;2022-09-13T18:21:05;21.70;54.80
16134;DHT22;8172;45.018;5.972;2022-09-13T18:26:15;21.70;54.80
16134;DHT22;8172;45.018;5.972;2022-09-13T18:31:23;21.70;54.80
16134;DHT22;8172;45.018;5.972;2022-09-13T18:36:32;21.60;54.90
16134;DHT22;8172;45.018;5.972;2022-09-13T18:41:40;21.60;54.90
16134;DHT22;8172;45.018;5.972;2022-09-13T18:46:49;21.50;54.80
16134;DHT22;8172;45.018;5.972;2022-09-13T18:51:58;21.50;54.70
16134;DHT22;8172;45.018;5.972;2022-09-13T18:57:06;21.50;54.30
16134;DHT22;8172;45.018;5.972;2022-09-13T19:02:13;21.40;54.30
16134;DHT22;8172;45.018;5.972;2022-09-13T19:07:20;21.40;54.30
16134;DHT22;8172;45.018;5.972;2022-09-13T19:12:28;21.40;53.90
16134;DHT22;8172;45.018;5.972;2022-09-13T19:17:36;21.40;53.60
16134;DHT22;8172;45.018;5.972;2022-09-13T19:22:44;21.30;53.50
16134;DHT22;8172;45.018;5.972;2022-09-13T19:27:52;21.30;53.50
16134;DHT22;8172;45.018;5.972;2022-09-13T19:32:59;21.30;53.60
16134;DHT22;8172;45.018;5.972;2022-09-13T19:38:08;21.30;53.70
16134;DHT22;8172;45.018;5.972;2022-09-13T19:43:15;21.30;54.00
16134;DHT22;8172;45.018;5.972;2022-09-13T19:48:23;21.30;54.20
16134;DHT22;8172;45.018;5.972;2022-09-13T19:53:34;21.30;54.50
16134;DHT22;8172;45.018;5.972;2022-09-13T19:58:45;21.30;54.70
16134;DHT22;8172;45.018;5.972;2022-09-13T20:03:55;21.30;54.90
16134;DHT22;8172;45.018;5.972;2022-09-13T20:09:05;21.30;55.20
16134;DHT22;8172;45.018;5.972;2022-09-13T20:14:14;21.30;55.20
16134;DHT22;8172;45.018;5.972;2022-09-13T20:19:22;21.30;55.40
16134;DHT22;8172;45.018;5.972;2022-09-13T20:24:31;21.30;55.60
16134;DHT22;8172;45.018;5.972;2022-09-13T20:29:38;21.30;55.50
16134;DHT22;8172;45.018;5.972;2022-09-13T20:34:47;21.30;55.50
16134;DHT22;8172;45.018;5.972;2022-09-13T20:39:56;21.20;55.60
16134;DHT22;8172;45.018;5.972;2022-09-13T20:45:03;21.20;55.70
16134;DHT22;8172;45.018;5.972;2022-09-13T20:50:10;21.20;55.70
16134;DHT22;8172;45.018;5.972;2022-09-13T20:55:18;21.20;55.50
16134;DHT22;8172;45.018;5.972;2022-09-13T21:00:25;21.20;55.60
16134;DHT22;8172;45.018;5.972;2022-09-13T21:05:35;21.20;55.40
16134;DHT22;8172;45.018;5.972;2022-09-13T21:10:42;21.20;55.40
16134;DHT22;8172;45.018;5.972;2022-09-13T21:15:49;21.20;55.40
16134;DHT22;8172;45.018;5.972;2022-09-13T21:20:57;21.20;55.30
16134;DHT22;8172;45.018;5.972;2022-09-13T21:26:07;21.20;55.30
16134;DHT22;8172;45.018;5.972;2022-09-13T21:31:18;21.20;55.30
16134;DHT22;8172;45.018;5.972;2022-09-13T21:36:27;21.20;55.30
16134;DHT22;8172;45.018;5.972;2022-09-13T21:41:34;21.20;55.30
16134;DHT22;8172;45.018;5.972;2022-09-13T21:46:42;21.20;55.20
16134;DHT22;8172;45.018;5.972;2022-09-13T21:51:52;21.20;55.10
16134;DHT22;8172;45.018;5.972;2022-09-13T21:56:59;21.20;55.10
16134;DHT22;8172;45.018;5.972;2022-09-13T22:02:06;21.20;55.20
16134;DHT22;8172;45.018;5.972;2022-09-13T22:07:13;21.20;55.30
16134;DHT22;8172;45.018;5.972;2022-09-13T22:12:19;21.20;55.40
16134;DHT22;8172;45.018;5.972;2022-09-13T22:17:28;21.20;55.50
16134;DHT22;8172;45.018;5.972;2022-09-13T22:22:35;21.10;55.50
16134;DHT22;8172;45.018;5.972;2022-09-13T22:27:42;21.10;55.40
16134;DHT22;8172;45.018;5.972;2022-09-13T22:32:49;21.10;55.40
16134;DHT22;8172;45.018;5.972;2022-09-13T22:37:56;21.10;55.50
16134;DHT22;8172;45.018;5.972;2022-09-13T22:43:03;21.10;55.50
16134;DHT22;8172;45.018;5.972;2022-09-13T22:48:10;21.10;55.60
16134;DHT22;8172;45.018;5.972;2022-09-13T22:53:18;21.10;55.60
16134;DHT22;8172;45.018;5.972;2022-09-13T22:58:25;21.10;55.70
16134;DHT22;8172;45.018;5.972;2022-09-13T23:03:34;21.00;55.70
16134;DHT22;8172;45.018;5.972;2022-09-13T23:08:42;21.00;55.70
16134;DHT22;8172;45.018;5.972;2022-09-13T23:13:51;21.10;55.70
16134;DHT22;8172;45.018;5.972;2022-09-13T23:18:58;21.10;55.60
16134;DHT22;8172;45.018;5.972;2022-09-13T23:24:09;21.10;55.40
16134;DHT22;8172;45.018;5.972;2022-09-13T23:29:17;21.10;55.50
16134;DHT22;8172;45.018;5.972;2022-09-13T23:34:24;21.10;55.30
16134;DHT22;8172;45.018;5.972;2022-09-13T23:39:31;21.10;55.10
16134;DHT22;8172;45.018;5.972;2022-09-13T23:44:38;21.20;55.00
16134;DHT22;8172;45.018;5.972;2022-09-13T23:49:45;21.20;54.80
16134;DHT22;8172;45.018;5.972;2022-09-13T23:54:52;21.20;54.70
16134;DHT22;8172;45.018;5.972;2022-09-13T23:59:59;21.20;54.70
